createdAt,value
2019-01-11T00:01:16.703Z,100082.56
2019-01-11T00:04:06.810Z,100083.39
2019-01-11T00:06:57.462Z,100087.05
2019-01-11T00:09:48.223Z,100080.97
2019-01-11T00:12:38.915Z,100090.03
2019-01-11T00:15:29.471Z,100093.06
2019-01-11T00:18:20.205Z,100099.97
2019-01-11T00:21:10.603Z,100107.50
2019-01-11T00:24:01.314Z,100120.21
2019-01-11T00:26:53.049Z,100128.64
2019-01-11T00:29:43.767Z,100122.45
2019-01-11T00:32:34.414Z,100124.61
2019-01-11T00:35:25.376Z,100124.20
2019-01-11T00:38:16.349Z,100128.21
2019-01-11T00:41:06.957Z,100131.97
2019-01-11T00:43:57.846Z,100129.41
2019-01-11T00:46:48.524Z,100134.20
2019-01-11T00:49:40.245Z,100140.16
2019-01-11T00:52:30.920Z,100146.94
2019-01-11T00:55:21.354Z,100150.43
2019-01-11T00:58:12.102Z,100149.68
2019-01-11T01:01:02.679Z,100153.14
2019-01-11T01:03:53.058Z,100153.62
2019-01-11T01:06:43.182Z,100159.02
2019-01-11T01:09:33.855Z,100163.01
2019-01-11T01:12:24.469Z,100152.87
2019-01-11T01:15:15.242Z,100152.57
2019-01-11T01:18:05.977Z,100156.18
2019-01-11T01:20:56.830Z,100153.16
2019-01-11T01:23:47.422Z,100150.80
2019-01-11T01:26:38.139Z,100150.74
2019-01-11T01:29:28.487Z,100149.38
2019-01-11T01:32:19.170Z,100156.31
2019-01-11T01:35:09.599Z,100164.76
2019-01-11T01:38:00.460Z,100164.98
2019-01-11T01:40:50.746Z,100160.17
2019-01-11T01:43:41.446Z,100165.17
2019-01-11T01:46:32.079Z,100172.39
2019-01-11T01:49:26.507Z,100171.30
2019-01-11T01:52:14.425Z,100177.45
2019-01-11T01:55:05.813Z,100178.31
2019-01-11T01:57:56.423Z,100178.20
2019-01-11T02:00:47.225Z,100189.22
2019-01-11T02:03:37.959Z,100184.41
2019-01-11T02:06:28.686Z,100183.88
2019-01-11T02:09:19.122Z,100187.18
2019-01-11T02:12:09.541Z,100192.20
2019-01-11T02:15:02.994Z,100187.89
2019-01-11T02:17:54.928Z,100193.08
2019-01-11T02:20:45.504Z,100199.95
2019-01-11T02:23:36.000Z,100196.22
2019-01-11T02:26:26.548Z,100201.76
2019-01-11T02:29:17.232Z,100203.92
2019-01-11T02:32:08.064Z,100205.17
2019-01-11T02:34:58.821Z,100212.02
2019-01-11T02:37:49.343Z,100210.86
2019-01-11T02:40:40.178Z,100217.19
2019-01-11T02:43:31.000Z,100217.44
2019-01-11T02:46:21.712Z,100220.52
2019-01-11T02:49:12.234Z,100219.97
2019-01-11T02:52:02.958Z,100225.88
2019-01-11T02:54:53.621Z,100225.88
2019-01-11T02:57:44.505Z,100233.45
2019-01-11T03:00:37.701Z,100231.62
2019-01-11T03:03:28.569Z,100220.98
2019-01-11T03:06:19.163Z,100224.61
2019-01-11T03:09:10.236Z,100230.12
2019-01-11T03:12:00.795Z,100222.36
2019-01-11T03:14:51.332Z,100216.10
2019-01-11T03:17:41.938Z,100233.51
2019-01-11T03:20:32.654Z,100231.30
2019-01-11T03:23:23.377Z,100235.11
2019-01-11T03:26:13.859Z,100229.88
2019-01-11T03:29:04.682Z,100231.13
2019-01-11T03:31:55.300Z,100234.55
2019-01-11T03:35:07.824Z,100240.63
2019-01-11T03:37:58.140Z,100242.62
2019-01-11T03:40:48.944Z,100248.61
2019-01-11T03:43:39.495Z,100248.52
2019-01-11T03:46:30.252Z,100246.35
2019-01-11T03:49:20.675Z,100246.41
2019-01-11T03:52:11.109Z,100251.56
2019-01-11T03:55:01.867Z,100248.80
2019-01-11T03:57:52.242Z,100249.36
2019-01-11T04:00:42.980Z,100235.98
2019-01-11T04:03:33.545Z,100249.01
2019-01-11T04:06:23.869Z,100263.90
2019-01-11T04:09:14.695Z,100264.56
2019-01-11T04:12:05.402Z,100274.27
2019-01-11T04:14:56.204Z,100283.27
2019-01-11T04:17:48.209Z,100276.92
2019-01-11T04:20:38.579Z,100282.05
2019-01-11T04:23:29.207Z,100270.55
2019-01-11T04:26:19.565Z,100278.26
2019-01-11T04:29:10.227Z,100278.42
2019-01-11T04:32:00.801Z,100281.58
2019-01-11T04:34:51.531Z,100286.30
2019-01-11T04:37:41.968Z,100287.83
2019-01-11T04:40:34.234Z,100296.57
2019-01-11T04:43:25.283Z,100309.00
2019-01-11T04:46:16.013Z,100320.22
2019-01-11T04:49:06.476Z,100328.18
2019-01-11T04:51:57.006Z,100328.74
2019-01-11T04:54:47.599Z,100335.52
2019-01-11T04:57:41.853Z,100331.75
2019-01-11T05:00:36.221Z,100329.52
2019-01-11T05:03:27.206Z,100333.53
2019-01-11T05:06:20.936Z,100330.58
2019-01-11T05:09:11.528Z,100327.27
2019-01-11T05:12:02.198Z,100331.20
2019-01-11T05:14:52.486Z,100336.34
2019-01-11T05:17:43.139Z,100325.98
2019-01-11T05:20:33.809Z,100327.22
2019-01-11T05:23:24.586Z,100319.91
2019-01-11T05:26:15.296Z,100326.55
2019-01-11T05:29:05.447Z,100344.12
2019-01-11T05:31:55.965Z,100346.27
2019-01-11T05:34:46.157Z,100357.77
2019-01-11T05:37:37.665Z,100366.77
2019-01-11T05:40:28.687Z,100374.62
2019-01-11T05:43:20.718Z,100376.16
2019-01-11T05:46:13.598Z,100385.42
2019-01-11T05:49:04.074Z,100396.16
2019-01-11T05:51:54.422Z,100405.16
2019-01-11T05:54:45.106Z,100417.22
2019-01-11T05:57:35.945Z,100416.26
2019-01-11T06:00:26.666Z,100418.55
2019-01-11T06:03:17.370Z,100413.34
2019-01-11T06:06:07.961Z,100418.91
2019-01-11T06:08:58.499Z,100426.92
2019-01-11T06:11:49.070Z,100424.05
2019-01-11T06:14:39.742Z,100427.45
2019-01-11T06:17:30.541Z,100415.02
2019-01-11T06:20:21.167Z,100426.80
2019-01-11T06:23:11.948Z,100431.86
2019-01-11T06:26:02.636Z,100432.44
2019-01-11T06:28:53.452Z,100434.16
2019-01-11T06:31:43.973Z,100437.78
2019-01-11T06:34:34.842Z,100457.73
2019-01-11T06:37:27.990Z,100468.18
2019-01-11T06:40:18.575Z,100454.89
2019-01-11T06:43:08.993Z,100425.58
2019-01-11T06:45:59.623Z,100453.92
2019-01-11T06:48:50.239Z,100458.88
2019-01-11T06:51:40.788Z,100459.41
2019-01-11T06:54:31.330Z,100467.58
2019-01-11T06:57:21.962Z,100472.05
2019-01-11T07:00:14.308Z,100468.60
2019-01-11T07:03:04.993Z,100467.99
2019-01-11T07:05:55.922Z,100471.92
2019-01-11T07:08:46.533Z,100477.66
2019-01-11T07:11:37.070Z,100494.44
2019-01-11T07:14:27.890Z,100497.53
2019-01-11T07:17:18.627Z,100500.11
2019-01-11T07:20:10.476Z,100516.70
2019-01-11T07:23:00.754Z,100514.45
2019-01-11T07:25:51.211Z,100519.70
2019-01-11T07:28:41.535Z,100514.59
2019-01-11T07:31:34.349Z,100514.62
2019-01-11T07:34:24.941Z,100513.48
2019-01-11T07:37:15.833Z,100516.44
2019-01-11T07:40:07.646Z,100515.46
2019-01-11T07:42:57.860Z,100521.97
2019-01-11T07:45:48.539Z,100526.35
2019-01-11T07:48:39.013Z,100529.80
2019-01-11T07:51:29.481Z,100529.63
2019-01-11T07:54:20.259Z,100529.26
2019-01-11T07:57:14.420Z,100533.89
2019-01-11T08:00:06.937Z,100529.17
2019-01-11T08:02:57.374Z,100534.98
2019-01-11T08:05:48.037Z,100539.25
2019-01-11T08:08:38.506Z,100536.69
2019-01-11T08:11:29.179Z,100535.53
2019-01-11T08:14:19.788Z,100540.69
2019-01-11T08:17:10.424Z,100539.53
2019-01-11T08:20:01.221Z,100546.59
2019-01-11T08:22:51.898Z,100536.14
2019-01-11T08:25:42.506Z,100531.64
2019-01-11T08:28:35.997Z,100533.47
2019-01-11T08:31:26.875Z,100533.08
2019-01-11T08:34:18.016Z,100524.72
2019-01-11T08:37:10.317Z,100523.48
2019-01-11T08:40:01.391Z,100526.98
2019-01-11T08:42:51.827Z,100529.48
2019-01-11T08:45:42.631Z,100533.64
2019-01-11T08:48:33.307Z,100534.31
2019-01-11T08:51:24.237Z,100538.50
2019-01-11T08:54:14.654Z,100542.20
2019-01-11T08:57:05.360Z,100543.16
2019-01-11T08:59:56.106Z,100539.52
2019-01-11T09:02:46.907Z,100543.20
2019-01-11T09:05:37.864Z,100544.74
2019-01-11T09:08:28.892Z,100543.56
2019-01-11T09:11:19.468Z,100543.88
2019-01-11T09:14:19.879Z,100550.88
2019-01-11T09:17:10.375Z,100547.41
2019-01-11T09:20:01.316Z,100552.03
2019-01-11T09:22:52.271Z,100552.45
2019-01-11T09:25:43.364Z,100544.31
2019-01-11T09:28:34.162Z,100543.27
2019-01-11T09:31:24.906Z,100543.48
2019-01-11T09:34:15.994Z,100524.33
2019-01-11T09:37:07.062Z,100537.95
2019-01-11T09:39:57.376Z,100530.48
2019-01-11T09:42:48.058Z,100544.25
2019-01-11T09:45:39.165Z,100552.50
2019-01-11T09:48:30.416Z,100548.28
2019-01-11T09:51:21.117Z,100550.20
2019-01-11T09:54:12.177Z,100548.86
2019-01-11T09:57:03.033Z,100538.98
2019-01-11T09:59:53.911Z,100533.77
2019-01-11T10:02:49.560Z,100534.91
2019-01-11T10:05:40.695Z,100539.70
2019-01-11T10:08:31.799Z,100532.81
2019-01-11T10:11:22.953Z,100530.41
2019-01-11T10:14:13.765Z,100529.86
2019-01-11T10:17:04.473Z,100527.55
2019-01-11T10:19:55.638Z,100517.86
2019-01-11T10:22:46.599Z,100519.86
2019-01-11T10:25:39.804Z,100530.14
2019-01-11T10:28:33.171Z,100521.48
2019-01-11T10:31:23.678Z,100520.28
2019-01-11T10:34:14.501Z,100512.60
2019-01-11T10:37:05.309Z,100511.13
2019-01-11T10:39:56.187Z,100508.06
2019-01-11T10:42:46.871Z,100501.07
2019-01-11T10:45:37.886Z,100501.66
2019-01-11T10:48:28.775Z,100511.00
2019-01-11T10:51:19.605Z,100502.98
2019-01-11T10:54:16.947Z,100498.08
2019-01-11T10:57:07.727Z,100502.06
2019-01-11T10:59:58.670Z,100495.97
2019-01-11T11:02:49.418Z,100491.37
2019-01-11T11:05:41.235Z,100499.39
2019-01-11T11:08:32.052Z,100494.30
2019-01-11T11:11:22.520Z,100494.61
2019-01-11T11:14:13.193Z,100493.69
2019-01-11T11:17:03.827Z,100495.77
2019-01-11T11:19:55.064Z,100497.81
2019-01-11T11:22:46.168Z,100488.40
2019-01-11T11:25:36.958Z,100489.52
2019-01-11T11:28:27.803Z,100488.41
2019-01-11T11:31:18.186Z,100487.98
2019-01-11T11:34:08.585Z,100482.14
2019-01-11T11:37:00.872Z,100482.89
2019-01-11T11:39:52.086Z,100490.50
2019-01-11T11:42:42.928Z,100488.31
2019-01-11T11:45:33.850Z,100492.83
2019-01-11T11:48:24.771Z,100488.92
2019-01-11T11:51:15.348Z,100487.49
2019-01-11T11:54:06.237Z,100494.00
2019-01-11T11:56:56.924Z,100492.01
2019-01-11T11:59:48.117Z,100493.78
2019-01-11T12:02:38.588Z,100492.77
2019-01-11T12:05:30.497Z,100499.36
2019-01-11T12:08:21.218Z,100496.39
2019-01-11T12:11:12.033Z,100492.31
2019-01-11T12:14:03.034Z,100497.92
2019-01-11T12:16:53.867Z,100507.68
2019-01-11T12:19:44.818Z,100510.22
2019-01-11T12:22:35.856Z,100507.21
2019-01-11T12:25:26.492Z,100503.08
2019-01-11T12:28:18.307Z,100508.05
2019-01-11T12:31:13.539Z,100506.36
2019-01-11T12:34:08.422Z,100512.69
2019-01-11T12:37:03.209Z,100510.36
2019-01-11T12:39:57.869Z,100505.17
2019-01-11T12:42:53.697Z,100507.15
2019-01-11T12:45:49.249Z,100503.04
2019-01-11T12:48:45.103Z,100500.43
2019-01-11T12:51:39.715Z,100502.45
2019-01-11T12:54:34.381Z,100501.47
2019-01-11T12:57:28.413Z,100500.68
2019-01-11T13:00:19.491Z,100508.14
2019-01-11T13:03:10.693Z,100506.08
2019-01-11T13:06:01.330Z,100505.28
2019-01-11T13:08:52.096Z,100512.80
2019-01-11T13:11:42.690Z,100512.27
2019-01-11T13:14:33.405Z,100521.15
2019-01-11T13:17:24.328Z,100512.80
2019-01-11T13:20:18.175Z,100514.78
2019-01-11T13:23:09.506Z,100509.65
2019-01-11T13:26:00.434Z,100517.45
2019-01-11T13:28:51.146Z,100519.59
2019-01-11T13:31:41.761Z,100515.36
2019-01-11T13:34:32.917Z,100519.42
2019-01-11T13:37:24.026Z,100524.40
2019-01-11T13:40:18.539Z,100495.94
2019-01-11T13:43:10.552Z,100524.15
2019-01-11T13:46:00.936Z,100522.69
2019-01-11T13:48:52.024Z,100525.56
2019-01-11T13:51:43.101Z,100524.73
2019-01-11T13:54:34.068Z,100530.18
2019-01-11T13:57:25.104Z,100534.55
2019-01-11T14:00:15.859Z,100540.20
2019-01-11T14:03:06.586Z,100537.64
2019-01-11T14:05:57.413Z,100536.08
2019-01-11T14:08:48.229Z,100538.39
2019-01-11T14:11:39.181Z,100534.10
2019-01-11T14:14:30.158Z,100538.77
2019-01-11T14:17:20.976Z,100536.15
2019-01-11T14:20:11.212Z,100536.99
2019-01-11T14:23:01.695Z,100521.52
2019-01-11T14:25:53.243Z,100548.53
2019-01-11T14:28:43.982Z,100554.45
2019-01-11T14:31:34.596Z,100568.06
2019-01-11T14:34:25.390Z,100572.27
2019-01-11T14:37:16.308Z,100575.63
2019-01-11T14:40:08.862Z,100583.17
2019-01-11T14:42:59.167Z,100584.56
2019-01-11T14:45:49.739Z,100585.02
2019-01-11T14:48:39.979Z,100591.34
2019-01-11T14:51:30.513Z,100589.91
2019-01-11T14:54:20.957Z,100593.54
2019-01-11T14:57:11.368Z,100594.20
2019-01-11T15:00:01.923Z,100601.73
2019-01-11T15:02:52.606Z,100591.38
2019-01-11T15:05:42.998Z,100592.81
2019-01-11T15:08:33.926Z,100596.70
2019-01-11T15:11:27.411Z,100591.67
2019-01-11T15:14:17.952Z,100569.69
2019-01-11T15:17:08.804Z,100592.90
2019-01-11T15:19:59.784Z,100597.55
2019-01-11T15:22:50.725Z,100603.06
2019-01-11T15:25:41.506Z,100601.25
2019-01-11T15:28:32.138Z,100611.91
2019-01-11T15:31:22.506Z,100613.69
2019-01-11T15:34:12.828Z,100618.25
2019-01-11T15:37:03.403Z,100624.14
2019-01-11T15:39:53.903Z,100623.00
2019-01-11T15:42:44.601Z,100620.90
2019-01-11T15:45:35.338Z,100620.23
2019-01-11T15:48:47.260Z,100624.36
2019-01-11T15:51:37.806Z,100628.08
2019-01-11T15:54:28.559Z,100634.11
2019-01-11T15:57:19.199Z,100633.34
2019-01-11T16:00:10.212Z,100640.14
2019-01-11T16:03:00.548Z,100639.22
2019-01-11T16:06:10.598Z,100639.87
2019-01-11T16:10:01.569Z,100643.02
2019-01-11T16:13:30.661Z,100638.81
2019-01-11T16:16:45.238Z,100634.97
2019-01-11T16:19:35.668Z,100641.25
2019-01-11T16:22:25.991Z,100640.03
2019-01-11T16:25:16.840Z,100640.48
2019-01-11T16:28:07.252Z,100632.45
2019-01-11T16:30:57.864Z,100642.91
2019-01-11T16:33:48.152Z,100641.21
2019-01-11T16:36:38.754Z,100647.36
2019-01-11T16:39:29.465Z,100649.59
2019-01-11T16:42:19.848Z,100645.05
2019-01-11T16:45:12.457Z,100647.90
2019-01-11T16:48:03.911Z,100647.86
2019-01-11T16:50:54.754Z,100645.26
2019-01-11T16:53:45.579Z,100645.71
2019-01-11T16:56:36.498Z,100643.61
2019-01-11T16:59:27.404Z,100635.98
2019-01-11T17:02:18.125Z,100644.11
2019-01-11T17:05:08.695Z,100642.59
2019-01-11T17:07:59.411Z,100644.47
2019-01-11T17:10:49.796Z,100647.77
2019-01-11T17:13:40.719Z,100640.86
2019-01-11T17:16:31.658Z,100639.84
2019-01-11T17:19:22.342Z,100632.52
2019-01-11T17:22:12.890Z,100638.42
2019-01-11T17:25:03.474Z,100642.78
2019-01-11T17:27:54.254Z,100640.44
2019-01-11T17:30:44.603Z,100642.78
2019-01-11T17:33:37.125Z,100638.75
2019-01-11T17:36:27.744Z,100640.30
2019-01-11T17:39:18.562Z,100633.11
2019-01-11T17:42:09.555Z,100629.45
2019-01-11T17:45:00.282Z,100637.05
2019-01-11T17:47:50.866Z,100634.85
2019-01-11T17:50:41.394Z,100634.31
2019-01-11T17:53:31.798Z,100641.03
2019-01-11T17:56:22.475Z,100644.73
2019-01-11T17:59:12.972Z,100645.57
2019-01-11T18:02:03.454Z,100641.13
2019-01-11T18:04:54.034Z,100647.04
2019-01-11T18:07:44.779Z,100648.55
2019-01-11T18:10:35.245Z,100665.66
2019-01-11T18:13:25.841Z,100668.48
2019-01-11T18:16:16.784Z,100667.39
2019-01-11T18:19:07.829Z,100665.05
2019-01-11T18:21:58.606Z,100660.78
2019-01-11T18:24:49.313Z,100661.67
2019-01-11T18:27:39.945Z,100660.78
2019-01-11T18:30:30.689Z,100660.11
2019-01-11T18:33:21.210Z,100654.65
2019-01-11T18:36:12.059Z,100657.00
2019-01-11T18:39:02.629Z,100654.28
2019-01-11T18:41:54.241Z,100648.12
2019-01-11T18:44:46.091Z,100643.56
2019-01-11T18:47:36.884Z,100652.80
2019-01-11T18:50:28.483Z,100659.72
2019-01-11T18:53:19.363Z,100662.72
2019-01-11T18:56:09.988Z,100659.83
2019-01-11T18:59:00.536Z,100661.48
2019-01-11T19:01:51.155Z,100658.86
2019-01-11T19:04:42.421Z,100659.52
2019-01-11T19:07:33.244Z,100664.48
2019-01-11T19:10:23.819Z,100664.23
2019-01-11T19:13:14.509Z,100667.92
2019-01-11T19:16:05.004Z,100670.65
2019-01-11T19:18:55.399Z,100669.25
2019-01-11T19:21:45.860Z,100669.45
2019-01-11T19:24:36.760Z,100671.30
2019-01-11T19:27:27.432Z,100666.36
2019-01-11T19:30:25.873Z,100670.17
2019-01-11T19:33:16.496Z,100667.77
2019-01-11T19:36:07.256Z,100663.09
2019-01-11T19:38:58.145Z,100657.72
2019-01-11T19:41:48.655Z,100654.77
2019-01-11T19:44:39.130Z,100656.72
2019-01-11T19:47:29.599Z,100649.55
2019-01-11T19:50:22.166Z,100639.53
2019-01-11T19:53:12.668Z,100642.29
2019-01-11T19:56:03.508Z,100645.06
2019-01-11T19:58:54.203Z,100640.19
2019-01-11T20:01:45.100Z,100637.44
2019-01-11T20:04:36.093Z,100639.84
2019-01-11T20:07:26.989Z,100631.36
2019-01-11T20:10:20.947Z,100638.33
2019-01-11T20:13:12.059Z,100637.61
2019-01-11T20:16:02.699Z,100635.34
2019-01-11T20:18:53.111Z,100632.16
2019-01-11T20:21:43.364Z,100633.41
2019-01-11T20:24:34.309Z,100628.35
2019-01-11T20:27:24.694Z,100627.94
2019-01-11T20:30:17.740Z,100623.67
2019-01-11T20:33:08.274Z,100629.52
2019-01-11T20:35:58.984Z,100631.47
2019-01-11T20:38:49.608Z,100639.18
2019-01-11T20:41:40.164Z,100640.59
2019-01-11T20:44:30.543Z,100632.09
2019-01-11T20:47:20.964Z,100628.35
2019-01-11T20:50:13.802Z,100635.98
2019-01-11T20:53:04.415Z,100629.44
2019-01-11T20:55:54.942Z,100636.23
2019-01-11T20:58:45.793Z,100635.45
2019-01-11T21:01:36.404Z,100634.03
2019-01-11T21:04:27.138Z,100643.08
2019-01-11T21:07:17.804Z,100632.55
2019-01-11T21:10:08.657Z,100631.30
2019-01-11T21:12:59.407Z,100622.71
2019-01-11T21:15:50.051Z,100617.72
2019-01-11T21:18:40.640Z,100613.26
2019-01-11T21:21:31.296Z,100599.16
2019-01-11T21:24:21.720Z,100612.69
2019-01-11T21:27:16.177Z,100602.17
2019-01-11T21:30:10.881Z,100601.44
2019-01-11T21:33:01.894Z,100609.80
2019-01-11T21:35:52.317Z,100599.69
2019-01-11T21:38:42.945Z,100601.78
2019-01-11T21:41:33.484Z,100604.99
2019-01-11T21:44:24.165Z,100601.18
2019-01-11T21:47:14.672Z,100569.28
2019-01-11T21:50:09.629Z,100597.03
2019-01-11T21:53:00.066Z,100599.91
2019-01-11T21:55:50.461Z,100597.03
2019-01-11T21:58:41.383Z,100588.22
2019-01-11T22:01:32.491Z,100593.42
2019-01-11T22:04:23.253Z,100599.69
2019-01-11T22:07:14.357Z,100603.80
2019-01-11T22:10:05.904Z,100607.00
2019-01-11T22:12:56.724Z,100598.87
2019-01-11T22:15:47.254Z,100604.13
2019-01-11T22:18:37.807Z,100594.92
2019-01-11T22:21:28.337Z,100572.46
2019-01-11T22:24:19.324Z,100606.52
2019-01-11T22:27:09.775Z,100612.61
2019-01-11T22:30:00.249Z,100615.51
2019-01-11T22:32:51.085Z,100613.97
2019-01-11T22:35:41.543Z,100614.45
2019-01-11T22:38:31.761Z,100618.64
2019-01-11T22:41:22.497Z,100613.13
2019-01-11T22:44:13.309Z,100606.48
2019-01-11T22:47:04.156Z,100610.39
2019-01-11T22:49:54.603Z,100615.27
2019-01-11T22:52:45.076Z,100603.97
2019-01-11T22:55:35.492Z,100605.30
2019-01-11T22:58:25.952Z,100608.58
2019-01-11T23:02:00.006Z,100597.34
2019-01-11T23:04:50.710Z,100595.03
2019-01-11T23:07:57.044Z,100591.34
2019-01-11T23:11:27.084Z,100591.05
2019-01-11T23:14:17.671Z,100590.81
2019-01-11T23:17:33.451Z,100596.98
2019-01-11T23:20:25.459Z,100598.15
2019-01-11T23:23:16.256Z,100600.34
2019-01-11T23:26:06.948Z,100606.10
2019-01-11T23:28:57.716Z,100609.54
2019-01-11T23:31:48.332Z,100613.75
2019-01-11T23:34:39.167Z,100609.99
2019-01-11T23:37:29.526Z,100608.75
2019-01-11T23:40:21.119Z,100607.42
2019-01-11T23:43:12.761Z,100617.56
2019-01-11T23:46:11.361Z,100616.87
2019-01-11T23:49:02.308Z,100623.17
2019-01-11T23:51:52.641Z,100623.88
2019-01-11T23:54:43.423Z,100630.92
2019-01-11T23:57:34.094Z,100624.75
